Airfield :







YOU CAN JOIN US ON...

 
LOGIN :

Register | Disclaimer

   EN    FR    IT 

 









Legend :    VFR   Marginal VFR   IFR   Intensive IFR   Very Intensive IFR
Visi :
Ceiling :
>= 8 km
>= 3000ft
5 to 8 km
1000 to 3000 ft
1500m to 5 km
500 to 1000 ft
800 to 1500m
200 to 500 ft
< 800m
< 200 ft
Symbols :   Thunderstorms  Fog  Heavy snow  Heavy precipitations  Wind > 20 kt






- Airport Elevation : 545 ft


KLCI - Laconia Municipal

CURRENT METAR :
  • 192356Z AUTO 00000KT 10SM CLR 06/03 A3002 RMK AO2 SLP171 T00610028 10133 20050 53015

EXPIRED METARs :
  • 192256Z AUTO 00000KT 10SM CLR 08/02 A3000 RMK AO2 SLP163 T00780022
  • 192156Z AUTO 28005KT 10SM CLR 11/01 A2999 RMK AO2 SLP156 T01060011

TAF N/A



MET'MAP, your aeronautical weather chart ! - Copyright ORBIFLY December 2007 - Disclaimer

ORBIFLY MET'MAP TEAM :

Programming & Development : Alexandra Zaïnal
Concept & Development : Baudouin d'Aumeries
Co-Development & Prog : Marc-Olivier Méhu
Technical & hardware support : Manuel Goepfert

Contact : metmap@orbifly.com




SOURCES & CREDITS :

   NOAA